Bookmark and Share
Track history (hours):
 

Paulistana II

Last reported at 2014-Apr-25 05:33 UTC. Time now 2014-Apr-25 05:58 UTC.
Position N 25°13' E 118°58'.

Length 6 m.

Type: Pollution control. MMSI: 316014038.

NotesDate/timePositionNaut miles runAvg speedWind from/ knotsBaromVisibWave heightAir tempDewpointWater temp
2014-Apr-25 05:33N 25°13' E 118°58'0 0.0
2014-Apr-25 04:33N 25°13' E 118°58'0 0.0
2014-Apr-25 03:33N 25°13' E 118°58'0 0.0
2014-Apr-25 02:33N 25°13' E 118°58'0 0.0
2014-Apr-25 01:33N 25°13' E 118°58'0 0.0
2014-Apr-25 00:33N 25°13' E 118°58'0 0.0
2014-Apr-24 23:33N 25°13' E 118°58'0 0.0
2014-Apr-24 22:27N 25°13' E 118°58'0 0.0
2014-Apr-24 21:33N 25°13' E 118°58'0 0.0
2014-Apr-24 20:33N 25°13' E 118°58'2321147.9
2014-Apr-24 20:33N 24°49' E 118°58'2423.5
2014-Apr-24 19:33N 25°13' E 118°58'0 0.0
2014-Apr-24 18:33N 25°13' E 118°58'0 0.0
2014-Apr-24 17:33N 25°13' E 118°58'0 0.0
2014-Apr-24 16:30N 25°13' E 118°58'0 0.0
2014-Apr-24 15:33N 25°13' E 118°58'0 0.0
2014-Apr-24 14:33N 25°13' E 118°58'0 0.0
2014-Apr-24 13:33N 25°13' E 118°58'0 0.0
2014-Apr-24 12:27N 25°13' E 118°58'0 0.0
2014-Apr-24 11:33N 25°13' E 118°58'0 0.0
2014-Apr-24 10:27N 25°13' E 118°58'0 0.0
2014-Apr-24 09:33N 25°13' E 118°58'0 0.0
2014-Apr-24 08:33N 25°13' E 118°58'42268.7
2014-Apr-24 02:25N 32°02' E 120°52'53931083.1
2014-Apr-23 21:26N 49°17' W 122°51'4 4.1
2014-Apr-23 20:33N 49°18' W 122°56'4 3.8
2014-Apr-23 19:33N 49°17' W 123°02'0 0.0
2014-Apr-23 18:33N 49°17' W 123°02'0 0.1
2014-Apr-23 17:33N 49°18' W 123°02'5818627.5
2014-Apr-23 08:17N 25°13' E 118°58'0 0.0
2014-Apr-23 07:24N 25°13' E 118°58'0 0.0
2014-Apr-23 03:27N 25°13' E 118°58'0 0.0
2014-Apr-23 02:33N 25°13' E 118°58'0 0.0
2014-Apr-23 01:33N 25°13' E 118°58'0 0.0
2014-Apr-23 00:31N 25°13' E 118°58'0 0.0
2014-Apr-22 23:30N 25°13' E 118°58'0 0.0
2014-Apr-22 22:30N 25°13' E 118°58'0 0.0
2014-Apr-22 21:30N 25°13' E 118°58'0 0.0
2014-Apr-22 20:30N 25°13' E 118°58'0 0.0
2014-Apr-22 19:30N 25°13' E 118°58'0 0.0
2014-Apr-22 18:32N 25°13' E 118°58'0 0.0
2014-Apr-22 17:32N 25°13' E 118°58'0 0.0
2014-Apr-22 16:30N 25°13' E 118°58'0 0.0
2014-Apr-22 15:30N 25°13' E 118°58'0 0.0
2014-Apr-22 14:30N 25°13' E 118°58'0 0.0
2014-Apr-22 13:24N 25°13' E 118°58'0 0.0
2014-Apr-22 12:30N 25°13' E 118°58'0 0.0
2014-Apr-22 11:30N 25°13' E 118°58'0 0.0
2014-Apr-22 10:30N 25°13' E 118°58'0 0.0
2014-Apr-22 09:30N 25°13' E 118°58'50 1.9
2014-Apr-21 07:15N 25°45' E 119°39'382416.0
2014-Apr-21 06:20N 32°07' E 119°55'5 4.3
2014-Apr-21 05:13N 32°03' E 119°57'3 4.3
2014-Apr-21 04:29N 31°60' E 119°60'374392.6
2014-Apr-21 03:31N 25°46' E 119°40'3722820.7
2014-Apr-21 03:23N 31°58' E 120°05'4 4.9
2014-Apr-21 02:33N 31°57' E 120°09'6 5.7
2014-Apr-21 01:33N 31°57' E 120°16'6 6.4
2014-Apr-21 00:33N 31°60' E 120°23'7 6.8
2014-Apr-20 23:33N 32°02' E 120°30'7 7.3
2014-Apr-20 22:32N 32°00' E 120°39'6 5.6
2014-Apr-20 21:33N 32°03' E 120°45'18 0.9
2014-Apr-20 00:15N 31°60' E 120°23'5420756.8
2014-Apr-19 17:05N 48°21' W 123°21'3 5.6
2014-Apr-19 16:34N 48°23' W 123°23'5875154.6
2014-Apr-18 02:33N 24°39' E 118°26'6 5.7
2014-Apr-18 01:33N 24°34' E 118°29'1 0.6
2014-Apr-18 00:31N 24°33' E 118°30'0 0.1
2014-Apr-17 23:31N 24°33' E 118°30'0 0.0
2014-Apr-17 21:31N 24°33' E 118°30'0 0.0
2014-Apr-17 20:19N 24°33' E 118°30'369476.8
2014-Apr-17 19:33N 29°49' E 122°05'3691631.0
2014-Apr-17 19:19N 24°33' E 118°30'375473.9
2014-Apr-17 18:32N 29°55' E 122°06'144 5.7
2014-Apr-16 17:13N 32°00' E 120°41'3 3.3
2014-Apr-16 16:26N 32°01' E 120°44'37 6.2
2014-Apr-16 10:31N 31°59' E 120°01'6 5.9
2014-Apr-16 09:29N 31°57' E 120°08'1149.6
2014-Apr-16 09:16N 31°59' E 120°20'2 2.8
2014-Apr-16 08:33N 31°58' E 120°19'4134.7
2014-Apr-16 08:31N 31°57' E 120°15'1 0.7
2014-Apr-16 07:29N 31°56' E 120°15'827.2
2014-Apr-16 07:12N 32°01' E 120°23'3 5.3
2014-Apr-16 06:33N 32°03' E 120°26'15480.0
2014-Apr-16 06:31N 31°56' E 120°11'21 5.4
2014-Apr-16 02:33N 32°02' E 120°35'0 0.0
2014-Apr-16 01:32N 32°02' E 120°35'0 0.1
2014-Apr-16 00:33N 32°02' E 120°35'4301916.1
2014-Apr-16 00:19N 38°52' E 117°60'430549.7
2014-Apr-15 23:32N 32°02' E 120°35'0 0.0
2014-Apr-15 22:33N 32°02' E 120°35'4401475.7
2014-Apr-15 22:15N 38°59' E 117°42'440629.8
2014-Apr-15 21:34N 32°02' E 120°35'435120567.0
2014-Apr-15 21:33N 38°56' E 117°49'435435.5
2014-Apr-15 20:33N 32°02' E 120°35'540689268.3
2014-Apr-15 20:30N 49°17' W 122°51'54065759.2
2014-Apr-15 19:33N 32°02' E 120°35'0 0.0
2014-Apr-15 18:33N 32°02' E 120°35'0 0.0
2014-Apr-15 17:18N 32°02' E 120°35'0 0.0
2014-Apr-15 15:28N 32°02' E 120°35'0 0.0
2014-Apr-15 14:33N 32°02' E 120°35'176963.7
2014-Apr-15 14:22N 29°33' E 122°22'17697.2
2014-Apr-15 12:34N 32°02' E 120°35'169168.1
2014-Apr-15 11:34N 29°45' E 122°29'16931934.8
2014-Apr-15 11:34N 32°02' E 120°35'1 0.5
2014-Apr-15 10:34N 32°02' E 120°34'16416426.6
2014-Apr-15 10:33N 29°53' E 122°33'9 9.1
2014-Apr-15 09:33N 30°02' E 122°34'1589635.7
2014-Apr-15 09:33N 32°02' E 120°34'0 0.0
2014-Apr-15 07:34N 32°02' E 120°34'0 0.0
2014-Apr-15 06:32N 32°02' E 120°34'0 0.0
2014-Apr-15 05:33N 32°02' E 120°34'  

Dump ship's entire track history

sailing weather and tide predictions

Paulistana II — 00 — position and weather